Eustis, Maine
Current Conditions -  °F | °C
As of 9:52 AM on Friday 31 Oct 2014 (Local Time) from KBML Reporting Station
Clear Clear  
Wind Chill: 42°   Ceiling: Unl
Heat Index: 42°   Visibility: 10mi
Dew Point: 32°   Wind: 0mph
Humidity: 67%   Direction: NA
Pressure: 30.03"   Gusts: NA
Location:  45.22°N, 70.48°W
Report Text: KBML 311352Z AUTO 00000KT 10SM CLR 06/00 A3003 RMK AO2 SLP181 T00560000
Loading
Personal Weather Stations






























Interactive Weather Map
Tropical Storm Tracking
New forecast layout! Learn more

10-Day Weather Forecast

Advertisements
Track Severe Weather on mobile